Wallace, New York
Current Conditions -  °F | °C
As of 11:42 AM on Tuesday 21 Oct 2014 (Local Time) from KDSV Reporting Station
Light Rain Light Rain  
Wind Chill: 51°   Ceiling: 2500
Heat Index: 51°   Visibility: 10mi
Dew Point: 49°   Wind: 0mph
Humidity: 92%   Direction: NA
Pressure: 29.86"   Gusts: NA
Location:  42.4193°N, 77.4498°W
Report Text: KDSV 211542Z AUTO 00000KT 10SM -RA SCT011 OVC025 11/09 A2986 RMK AO2 RAB14 P0001 T01060094
Loading
Personal Weather Stations






























Interactive Weather Map
Tropical Storm Tracking
New forecast layout! Learn more

10-Day Weather Forecast

Advertisements
Track Severe Weather on mobile